EDT,Max TemperatureF,Mean TemperatureF,Min TemperatureF,Max Dew PointF,MeanDew PointF,Min DewpointF,Max Humidity, Mean Humidity, Min Humidity, Max Sea Level PressureIn, Mean Sea Level PressureIn, Min Sea Level PressureIn, Max VisibilityMiles, Mean VisibilityMiles, Min VisibilityMiles, Max Wind SpeedMPH, Mean Wind SpeedMPH, Max Gust SpeedMPH,PrecipitationIn, CloudCover, Events, WindDirDegrees
2013-6-1,86,77,68,72,69,67,97,76,55,30.11,30.08,30.04,10,10,9,18,9,23,T,4,Rain,113
2013-6-2,85,79,72,75,72,71,100,85,69,30.07,29.98,29.90,10,10,5,17,8,21,0.02,5,Rain-Thunderstorm,134
2013-6-3,90,81,72,73,72,70,100,78,56,29.97,29.92,29.86,10,10,6,18,5,22,T,6,Thunderstorm,194
2013-6-4,83,77,70,77,73,70,94,82,69,30.02,29.98,29.94,10,8,2,18,5,22,0.50,6,Rain-Thunderstorm,209
2013-6-5,86,79,72,72,71,68,100,80,59,30.02,29.98,29.95,10,10,6,18,5,22,0.01,7,Rain,201
2013-6-6,79,75,71,75,72,69,94,91,87,29.96,29.76,29.52,10,5,0,28,12,37,2.18,8,Fog-Rain,121
2013-6-7,88,80,71,74,70,68,93,76,59,29.92,29.77,29.59,10,9,2,30,12,35,0.03,5,Rain,236
2013-6-8,91,81,70,74,71,68,94,72,50,30.09,30.01,29.93,10,10,7,15,7,20,0.00,6,,203
2013-6-9,87,80,73,76,73,70,94,80,65,30.13,30.09,30.05,10,9,2,23,5,30,0.25,7,Rain-Thunderstorm,149
2013-6-10,90,82,73,75,73,71,94,75,56,30.11,30.06,30.01,10,10,8,13,5,17,T,6,Thunderstorm,183
2013-6-11,91,82,73,75,72,69,100,76,52,30.09,30.05,30.01,10,10,7,13,5,15,0.00,5,,239
2013-6-12,96,85,73,76,73,70,93,68,43,30.07,30.02,29.97,10,10,7,13,5,17,0.00,2,,258
2013-6-13,96,86,75,76,74,72,94,72,49,30.00,29.93,29.86,10,10,7,18,8,22,0.00,3,Rain-Thunderstorm,237
2013-6-14,93,84,74,77,74,69,94,75,56,29.95,29.86,29.80,10,8,0,28,7,40,0.51,5,Fog-Rain-Thunderstorm,281
2013-6-15,86,79,72,72,67,65,93,72,51,30.11,30.05,29.96,10,10,10,17,9,22,0.00,4,,101
2013-6-16,87,78,68,72,69,66,90,73,55,30.14,30.10,30.06,10,10,10,15,7,21,0.00,3,,122
2013-6-17,92,84,75,77,74,72,94,77,59,30.09,30.03,29.97,10,10,10,15,6,20,0.00,4,,156
2013-6-18,93,82,70,74,70,68,93,71,49,30.04,29.99,29.92,10,10,7,18,8,24,0.00,4,,239
2013-6-19,94,84,73,74,71,68,93,70,47,30.05,29.99,29.94,10,10,7,17,8,22,0.00,5,Rain-Thunderstorm,237
2013-6-20,88,80,72,74,72,70,100,82,63,30.12,30.07,30.00,10,10,9,21,5,25,0.00,6,Thunderstorm,38
2013-6-21,83,78,72,74,72,71,100,85,69,30.14,30.12,30.06,10,10,3,18,5,22,0.35,6,Rain-Thunderstorm,41
2013-6-22,87,80,72,74,72,70,100,83,65,30.14,30.11,30.09,10,9,4,20,3,23,0.17,6,Rain-Thunderstorm,147
2013-6-23,89,80,70,75,72,69,100,79,57,30.17,30.13,30.10,10,10,9,15,5,18,0.00,5,,108
2013-6-24,89,81,72,75,72,70,100,76,52,30.22,30.17,30.11,10,10,9,16,6,22,0.00,6,,143
2013-6-25,91,82,72,75,72,66,100,78,56,30.17,30.12,30.06,10,10,10,26,5,33,0.01,6,Rain-Thunderstorm,140
2013-6-26,92,81,70,75,72,69,100,78,56,30.10,30.05,30.01,10,10,5,18,5,23,T,4,Rain-Thunderstorm,195
2013-6-27,93,81,69,76,72,68,100,75,49,30.03,29.97,29.88,10,10,8,16,6,23,0.05,4,Rain-Thunderstorm,247
2013-6-28,89,82,74,77,73,71,94,81,68,29.93,29.87,29.80,10,10,3,25,9,33,0.03,6,Rain-Thunderstorm,229
2013-6-29,87,81,74,76,73,72,94,80,65,29.83,29.79,29.75,10,10,2,15,10,32,0.14,7,Rain,208
2013-6-30,90,82,73,75,73,71,100,80,59,29.86,29.82,29.78,10,9,2,24,9,31,0.10,5,Rain-Thunderstorm,191